Time;durP1;ratioP1;P1;durP2;ratioP2;P2;SDS_P1;SDS_P2;PMS_P1;PMS_P2;Temp;Humidity;BMP_temperature;BMP_pressure;BME280_temperature;BME280_humidity;BME280_pressure;Samples;Min_cycle;Max_cycle;Signal;HPM_P1;HPM_P2
2023/06/16 00:03:15;;;;;;;8.18;3.60;;;;;;;20.01;35.69;99933.00;10348379;28;20311;-68
2023/06/16 00:08:19;;;;;;;5.75;3.60;;;;;;;19.72;36.16;99914.84;10341298;28;20291;-67
2023/06/16 00:13:20;;;;;;;5.00;3.83;;;;;;;19.61;36.14;99912.19;10355015;28;20209;-68
2023/06/16 00:18:24;;;;;;;6.45;3.80;;;;;;;21.50;33.82;99899.94;10356503;28;20252;-67
2023/06/16 00:23:27;;;;;;;4.05;3.25;;;;;;;22.39;33.79;99873.28;10352861;28;20209;-68
2023/06/16 00:28:28;;;;;;;4.15;3.47;;;;;;;21.59;35.08;99928.34;10355198;28;20260;-68
2023/06/16 00:33:30;;;;;;;3.35;3.05;;;;;;;21.66;35.23;99911.81;10355596;28;20264;-66
2023/06/16 00:38:32;;;;;;;4.15;3.40;;;;;;;21.66;35.42;99901.75;10354918;28;20239;-66
2023/06/16 00:43:33;;;;;;;5.22;3.70;;;;;;;20.98;35.86;99923.75;10359602;28;20210;-66
2023/06/16 00:48:36;;;;;;;4.25;3.50;;;;;;;21.00;36.34;99913.47;10355919;28;20222;-66
2023/06/16 00:53:39;;;;;;;3.75;3.17;;;;;;;21.52;35.70;99882.25;10354404;28;20747;-66
2023/06/16 00:58:41;;;;;;;5.88;3.45;;;;;;;21.59;36.15;99872.03;10353690;28;20233;-67
2023/06/16 01:03:44;;;;;;;3.42;3.13;;;;;;;21.85;35.11;99875.00;10352354;28;20265;-66
2023/06/16 01:09:05;;;;;;;6.88;3.75;;;;;;;21.24;35.79;99913.22;10353924;28;20755;-67
2023/06/16 01:14:27;;;;;;;4.03;3.63;;;;;;;20.25;37.17;99923.69;10354345;28;20210;-66
2023/06/16 01:19:39;;;;;;;4.72;3.33;;;;;;;21.50;36.16;99870.00;10354379;28;20703;-68
2023/06/16 01:24:42;;;;;;;5.18;3.65;;;;;;;20.82;36.61;99917.28;10353477;28;20256;-66
2023/06/16 01:29:46;;;;;;;3.92;3.40;;;;;;;20.87;36.82;99897.50;10351682;28;20666;-67
2023/06/16 01:34:48;;;;;;;5.05;3.50;;;;;;;20.67;36.76;99906.97;10350350;28;20239;-66
2023/06/16 01:39:51;;;;;;;4.82;3.60;;;;;;;20.69;36.78;99898.56;10353411;28;20219;-65
2023/06/16 01:44:53;;;;;;;5.70;3.85;;;;;;;20.21;37.11;99910.84;10354463;28;20237;-63
2023/06/16 01:49:56;;;;;;;4.20;3.50;;;;;;;18.93;39.22;99907.25;10350498;28;20221;-67
2023/06/16 01:54:58;;;;;;;8.18;3.80;;;;;;;18.46;39.87;99888.25;10349597;28;20248;-64
2023/06/16 02:00:11;;;;;;;4.37;3.40;;;;;;;19.98;37.88;99876.50;10347872;28;20412;-65
2023/06/16 02:05:16;;;;;;;4.57;3.60;;;;;;;19.48;38.09;99919.50;10352941;28;20252;-65
2023/06/16 02:10:21;;;;;;;5.95;4.00;;;;;;;18.75;38.40;99912.75;10353031;28;20279;-65
2023/06/16 02:15:23;;;;;;;10.18;4.03;;;;;;;19.56;37.04;99902.06;10354098;28;20226;-66
2023/06/16 02:20:26;;;;;;;7.47;4.40;;;;;;;18.86;36.69;99941.75;10351158;28;20682;-66
2023/06/16 02:25:27;;;;;;;8.10;4.53;;;;;;;18.90;36.67;99951.06;10350358;28;20229;-66
2023/06/16 02:30:29;;;;;;;4.50;4.10;;;;;;;18.94;38.25;99936.00;10351698;28;20275;-65
2023/06/16 02:35:31;;;;;;;6.40;4.30;;;;;;;19.79;36.68;99932.88;10350770;28;20751;-65
2023/06/16 02:40:33;;;;;;;5.70;4.00;;;;;;;19.70;37.13;99935.16;10352373;28;20216;-65
2023/06/16 02:45:34;;;;;;;5.22;4.00;;;;;;;18.83;37.70;99932.19;10353532;28;20241;-65
2023/06/16 02:50:36;;;;;;;4.78;3.70;;;;;;;20.34;35.89;99915.94;10350952;28;20210;-64
2023/06/16 02:55:38;;;;;;;5.53;4.20;;;;;;;19.80;36.80;99932.63;10351212;28;20787;-66
2023/06/16 03:00:40;;;;;;;5.05;4.00;;;;;;;18.62;38.47;99943.63;10349253;28;20944;-67
2023/06/16 03:05:42;;;;;;;6.70;4.83;;;;;;;17.45;39.85;99915.88;10343926;28;20245;-65
2023/06/16 03:10:44;;;;;;;5.20;4.23;;;;;;;18.45;38.91;99929.94;10350121;28;20519;-65
2023/06/16 03:15:46;;;;;;;5.50;3.90;;;;;;;20.00;37.62;99894.16;10346068;28;20225;-64
2023/06/16 03:20:47;;;;;;;10.07;4.17;;;;;;;18.44;39.68;99934.53;10350837;28;20271;-65
2023/06/16 03:25:49;;;;;;;4.90;3.70;;;;;;;18.30;39.99;99926.84;10348763;28;20794;-65
2023/06/16 03:30:54;;;;;;;5.83;4.23;;;;;;;19.19;38.66;99922.16;10347229;28;20427;-66
2023/06/16 03:35:55;;;;;;;4.57;3.83;;;;;;;19.86;38.13;99915.38;10344978;28;20941;-66
2023/06/16 03:40:57;;;;;;;9.57;4.30;;;;;;;19.51;37.85;99948.88;10353261;28;20202;-66
2023/06/16 03:45:59;;;;;;;5.67;4.20;;;;;;;19.39;38.43;99942.66;10350042;28;20237;-65
2023/06/16 03:51:01;;;;;;;5.57;3.60;;;;;;;18.27;39.88;99952.47;10358197;28;20217;-65
2023/06/16 03:56:03;;;;;;;6.40;3.78;;;;;;;19.07;38.71;99924.06;10360119;28;20306;-66
2023/06/16 04:01:05;;;;;;;7.33;3.80;;;;;;;19.49;37.97;99953.72;10357382;28;20228;-66
2023/06/16 04:06:07;;;;;;;9.82;4.40;;;;;;;19.41;38.88;99947.84;10356968;28;20242;-66
2023/06/16 04:11:08;;;;;;;7.63;4.50;;;;;;;18.26;40.16;99967.91;10356565;28;20219;-65
2023/06/16 04:16:10;;;;;;;6.13;4.50;;;;;;;19.53;39.29;99933.16;10353418;28;20613;-68
2023/06/16 04:21:11;;;;;;;4.77;3.60;;;;;;;20.08;38.20;99929.09;10351986;28;20299;-64
2023/06/16 04:26:19;;;;;;;6.13;4.33;;;;;;;20.47;38.13;99937.38;10356228;28;20261;-69
2023/06/16 04:31:28;;;;;;;5.93;4.27;;;;;;;19.75;38.95;99978.69;10354159;28;20241;-65
2023/06/16 04:36:31;;;;;;;6.20;4.70;;;;;;;19.21;40.50;99981.59;10356385;28;20554;-66
2023/06/16 04:41:35;;;;;;;7.47;4.93;;;;;;;19.46;40.34;99956.91;10357499;28;20205;-64
2023/06/16 04:46:37;;;;;;;5.00;3.97;;;;;;;19.44;39.84;99963.66;10356221;28;20236;-66
2023/06/16 04:51:38;;;;;;;5.27;4.43;;;;;;;20.38;39.15;99928.00;10352002;28;20622;-67
2023/06/16 04:56:41;;;;;;;6.67;4.67;;;;;;;19.91;39.40;99956.19;10355158;28;20239;-64
2023/06/16 05:01:43;;;;;;;5.27;4.37;;;;;;;20.02;38.85;99967.25;10353879;28;20336;-67
2023/06/16 05:06:46;;;;;;;5.53;4.47;;;;;;;20.05;39.54;99962.16;10351232;28;20238;-65
2023/06/16 05:11:48;;;;;;;5.43;4.00;;;;;;;20.50;39.24;99941.50;10354441;28;20296;-65
2023/06/16 05:16:50;;;;;;;4.75;4.32;;;;;;;19.98;40.04;99966.09;10354051;28;20229;-67
2023/06/16 05:21:52;;;;;;;4.87;4.37;;;;;;;20.36;39.91;99940.97;10349712;28;20220;-67
2023/06/16 05:26:53;;;;;;;5.85;4.55;;;;;;;19.85;40.25;99957.16;10354119;28;20236;-67
2023/06/16 05:31:55;;;;;;;6.65;4.55;;;;;;;19.86;40.69;99952.59;10352970;28;20249;-68
2023/06/16 05:36:57;;;;;;;5.00;4.13;;;;;;;20.85;39.43;99926.81;10353127;28;20261;-65
2023/06/16 05:41:58;;;;;;;5.93;4.38;;;;;;;20.10;40.56;99959.53;10353821;28;20385;-69
2023/06/16 05:47:00;;;;;;;5.93;3.80;;;;;;;21.30;39.41;99906.75;10353713;28;20350;-69
2023/06/16 05:52:04;;;;;;;4.97;4.13;;;;;;;21.28;38.92;99922.50;10353579;28;20292;-67
2023/06/16 05:57:06;;;;;;;4.90;3.88;;;;;;;21.42;38.06;99928.41;10350504;28;20241;-65
2023/06/16 06:02:07;;;;;;;6.13;4.10;;;;;;;20.63;38.30;99972.94;10352709;28;20241;-67
2023/06/16 06:07:11;;;;;;;6.57;4.47;;;;;;;21.01;36.62;99964.06;10351394;28;20604;-65
2023/06/16 06:12:13;;;;;;;6.38;4.55;;;;;;;21.08;36.66;99980.19;10350715;28;20213;-67
2023/06/16 06:17:15;;;;;;;8.25;4.28;;;;;;;21.17;36.13;99986.03;10352851;28;20654;-67
2023/06/16 06:22:17;;;;;;;5.93;4.03;;;;;;;20.61;37.76;100007.72;10352211;28;20210;-66
2023/06/16 06:27:18;;;;;;;6.50;4.55;;;;;;;20.87;37.10;100000.84;10351874;28;20241;-69
2023/06/16 06:32:20;;;;;;;6.85;4.22;;;;;;;20.74;37.15;100048.19;10352084;28;20586;-67
2023/06/16 06:37:28;;;;;;;5.45;4.20;;;;;;;20.54;37.31;100045.94;10350399;28;20245;-67
2023/06/16 06:42:30;;;;;;;9.00;4.70;;;;;;;20.91;37.42;100014.75;10352120;28;20684;-66
2023/06/16 06:47:32;;;;;;;7.03;4.10;;;;;;;21.07;36.74;100032.13;10352804;28;20240;-66
2023/06/16 06:52:34;;;;;;;6.25;4.50;;;;;;;21.25;35.62;100020.97;10350721;28;20209;-67
2023/06/16 06:57:36;;;;;;;5.55;4.35;;;;;;;20.82;36.61;100015.19;10351766;28;20234;-65
2023/06/16 07:02:38;;;;;;;6.82;3.80;;;;;;;21.09;36.20;100011.78;10351145;28;20701;-65
2023/06/16 07:07:40;;;;;;;4.10;3.50;;;;;;;20.67;36.25;100040.19;10351104;28;20233;-66
2023/06/16 07:12:41;;;;;;;6.93;4.07;;;;;;;21.44;34.98;100023.44;10347831;28;20944;-67
2023/06/16 07:17:43;;;;;;;5.82;4.00;;;;;;;20.12;36.00;100086.97;10345821;28;20229;-67
2023/06/16 07:22:45;;;;;;;4.50;3.45;;;;;;;22.80;34.05;99974.50;10358513;28;20210;-65
2023/06/16 07:27:47;;;;;;;5.35;4.13;;;;;;;22.38;35.23;99999.75;10357963;28;20651;-66
2023/06/16 07:32:49;;;;;;;5.80;4.05;;;;;;;22.78;34.80;99996.56;10355635;28;20213;-67
2023/06/16 07:37:51;;;;;;;4.72;3.80;;;;;;;20.28;36.68;100088.13;10358370;28;20260;-64
2023/06/16 07:42:53;;;;;;;6.10;4.35;;;;;;;20.85;36.36;100060.06;10355903;28;20255;-69
2023/06/16 07:47:54;;;;;;;6.70;4.00;;;;;;;22.93;34.24;99979.50;10356015;28;20233;-68
2023/06/16 07:52:56;;;;;;;6.50;4.28;;;;;;;21.36;35.08;100052.75;10353460;28;20237;-68
2023/06/16 07:57:58;;;;;;;6.45;4.50;;;;;;;20.56;36.26;100079.13;10358918;28;20625;-66
2023/06/16 08:03:00;;;;;;;6.38;3.80;;;;;;;22.66;33.98;99972.22;10354741;28;20454;-68
2023/06/16 08:08:02;;;;;;;8.10;4.35;;;;;;;21.53;35.26;100030.13;10354267;28;20252;-66
2023/06/16 08:13:04;;;;;;;4.60;3.78;;;;;;;22.09;34.48;100019.91;10356993;28;20209;-66
2023/06/16 08:18:06;;;;;;;5.32;4.25;;;;;;;22.82;33.39;99999.59;10357620;28;20291;-66
2023/06/16 08:23:08;;;;;;;5.22;4.00;;;;;;;24.50;33.12;99935.78;10353909;28;20751;-69
2023/06/16 08:28:11;;;;;;;5.57;3.95;;;;;;;21.95;34.69;100060.34;10353685;28;20240;-66
2023/06/16 08:33:12;;;;;;;6.32;4.50;;;;;;;23.10;33.87;99976.63;10350492;28;20210;-68
2023/06/16 08:38:14;;;;;;;5.15;3.80;;;;;;;22.40;35.09;100012.03;10356347;28;20230;-66
2023/06/16 08:43:16;;;;;;;7.55;3.72;;;;;;;23.25;33.36;99951.34;10359139;28;20637;-66
2023/06/16 08:48:18;;;;;;;5.03;3.88;;;;;;;22.66;33.36;100031.41;10355818;28;20265;-67
2023/06/16 08:53:22;;;;;;;4.75;3.53;;;;;;;23.31;32.85;99974.81;10356291;28;20205;-66
2023/06/16 08:58:26;;;;;;;5.75;3.75;;;;;;;23.80;32.58;99952.66;10354234;28;20229;-67
2023/06/16 09:03:32;;;;;;;5.75;3.65;;;;;;;23.94;31.70;99960.34;10352589;28;20786;-69
2023/06/16 09:08:35;;;;;;;8.57;3.38;;;;;;;23.63;31.25;99995.75;10354014;28;20291;-65
2023/06/16 09:13:43;;;;;;;5.07;3.28;;;;;;;24.54;29.81;99933.31;10354562;28;20209;-66
2023/06/16 09:18:44;;;;;;;6.10;3.67;;;;;;;23.37;29.71;100014.72;10353977;28;20229;-66
2023/06/16 09:23:56;;;;;;;5.85;3.67;;;;;;;23.67;30.87;99987.84;10355083;28;20221;-66
2023/06/16 09:28:58;;;;;;;5.30;3.13;;;;;;;24.06;30.47;99977.28;10350107;28;20734;-67
2023/06/16 09:34:05;;;;;;;3.70;3.00;;;;;;;25.23;29.31;99928.28;10355737;28;20213;-66
2023/06/16 09:39:29;;;;;;;5.60;3.10;;;;;;;24.37;30.43;99969.97;10352326;28;20229;-68
2023/06/16 09:44:32;;;;;;;5.28;3.05;;;;;;;23.62;29.75;99984.00;10353781;28;20209;-67
2023/06/16 09:49:33;;;;;;;4.45;3.35;;;;;;;25.36;28.74;99894.03;10352193;28;20229;-67
2023/06/16 09:54:35;;;;;;;3.17;2.88;;;;;;;25.01;29.07;99948.59;10353335;28;20220;-68
2023/06/16 09:59:37;;;;;;;5.97;3.00;;;;;;;24.17;29.10;99976.25;10350191;28;20218;-67
2023/06/16 10:04:40;;;;;;;4.65;3.05;;;;;;;25.52;27.99;99881.03;10350389;28;20248;-66
2023/06/16 10:09:47;;;;;;;4.40;3.25;;;;;;;25.24;27.88;99917.06;10352484;28;20277;-67
2023/06/16 10:15:07;;;;;;;4.13;3.00;;;;;;;24.19;29.07;99973.22;10350769;28;20252;-68
2023/06/16 10:20:10;;;;;;;3.58;3.17;;;;;;;25.35;28.75;99904.13;10352233;28;20252;-67
2023/06/16 10:25:12;;;;;;;4.80;3.22;;;;;;;24.86;28.71;99919.34;10353600;28;20229;-67
2023/06/16 10:30:19;;;;;;;3.90;2.80;;;;;;;25.14;28.31;99908.06;10350021;28;20387;-65
2023/06/16 10:35:22;;;;;;;5.15;3.40;;;;;;;26.09;28.89;99857.63;10352194;28;20627;-68
2023/06/16 10:40:24;;;;;;;3.50;3.08;;;;;;;26.68;28.69;99847.47;10350547;28;20217;-68
2023/06/16 10:45:35;;;;;;;6.20;3.20;;;;;;;26.39;28.14;99873.03;10354305;28;20723;-68
2023/06/16 10:50:40;;;;;;;4.47;3.00;;;;;;;24.71;29.17;99928.41;10351625;28;20780;-66
2023/06/16 10:55:45;;;;;;;4.63;3.15;;;;;;;25.87;28.85;99862.78;10349289;28;20256;-66
2023/06/16 11:06:22;;;;;;;6.47;3.55;;;;;;;26.23;28.41;99830.38;10425973;27;20860;-67
2023/06/16 11:11:34;;;;;;;6.28;3.22;;;;;;;24.66;29.28;99912.00;10421435;28;20263;-66
2023/06/16 11:16:36;;;;;;;6.85;3.40;;;;;;;25.78;28.86;99860.63;10418348;28;20243;-66
2023/06/16 11:21:38;;;;;;;4.85;3.03;;;;;;;23.62;30.31;99945.75;10416211;28;20220;-65
2023/06/16 11:26:39;;;;;;;5.70;3.78;;;;;;;22.75;31.03;99942.53;10420272;28;20414;-66
2023/06/16 11:31:41;;;;;;;4.28;3.47;;;;;;;23.90;29.86;99897.19;10422479;28;20672;-67
2023/06/16 11:36:47;;;;;;;6.13;3.55;;;;;;;23.30;31.30;99926.78;10420053;28;20235;-64
2023/06/16 11:41:56;;;;;;;3.97;3.20;;;;;;;26.19;29.30;99805.44;10422658;28;20256;-66
2023/06/16 11:47:03;;;;;;;10.90;3.38;;;;;;;24.76;29.86;99904.88;10418446;28;20469;-66
2023/06/16 11:52:06;;;;;;;6.13;3.65;;;;;;;26.56;28.21;99825.94;10418516;28;20204;-67
2023/06/16 11:57:08;;;;;;;5.65;3.50;;;;;;;26.62;28.90;99828.63;10419593;28;20305;-69
2023/06/16 12:02:10;;;;;;;3.97;3.38;;;;;;;25.69;29.04;99880.66;10416755;28;20259;-65
2023/06/16 12:07:13;;;;;;;4.90;3.40;;;;;;;25.88;29.26;99856.16;10418574;28;20286;-66
2023/06/16 12:12:15;;;;;;;7.28;3.80;;;;;;;25.90;28.41;99852.03;10418620;28;20240;-66
2023/06/16 12:17:17;;;;;;;7.28;3.85;;;;;;;24.49;29.35;99922.38;10398869;28;20323;-69
2023/06/16 12:22:21;;;;;;;4.57;3.50;;;;;;;24.62;28.75;99910.06;10394558;28;20656;-66
2023/06/16 12:27:24;;;;;;;7.05;3.85;;;;;;;25.32;28.27;99888.28;10392986;28;20229;-69
2023/06/16 12:32:32;;;;;;;4.85;3.20;;;;;;;25.68;27.51;99885.34;10389673;28;20617;-65
2023/06/16 12:37:34;;;;;;;5.28;3.33;;;;;;;26.36;27.25;99850.84;10390985;28;20236;-65
2023/06/16 12:42:37;;;;;;;3.92;3.20;;;;;;;26.99;27.20;99818.88;10392921;28;20683;-66
2023/06/16 12:47:38;;;;;;;4.15;3.20;;;;;;;25.98;28.19;99881.59;10392926;28;20229;-65
2023/06/16 12:52:40;;;;;;;7.65;3.97;;;;;;;25.65;27.65;99859.31;10392458;28;20223;-65
2023/06/16 12:57:42;;;;;;;5.63;3.35;;;;;;;25.78;28.34;99843.38;10390408;28;20633;-67
2023/06/16 13:02:43;;;;;;;4.90;3.38;;;;;;;26.23;28.77;99818.63;10393193;28;20302;-64
2023/06/16 13:07:45;;;;;;;7.60;4.10;;;;;;;27.49;27.35;99756.09;10389288;28;20727;-64
2023/06/16 13:12:47;;;;;;;4.13;3.67;;;;;;;26.85;27.92;99811.34;10386170;28;20702;-64
2023/06/16 13:17:48;;;;;;;8.85;4.03;;;;;;;25.66;28.32;99865.63;10389129;28;20229;-66
2023/06/16 13:22:50;;;;;;;4.03;3.30;;;;;;;28.19;27.20;99748.91;10389625;28;20761;-66
2023/06/16 13:27:52;;;;;;;6.68;3.72;;;;;;;27.14;27.09;99815.91;10381344;28;20630;-65
2023/06/16 13:32:54;;;;;;;4.63;3.60;;;;;;;27.81;26.01;99802.03;10386405;28;20333;-66
2023/06/16 13:37:55;;;;;;;6.47;3.55;;;;;;;26.63;26.48;99844.00;10387920;28;20359;-65
2023/06/16 13:42:59;;;;;;;5.40;3.35;;;;;;;26.27;27.41;99850.66;10389780;28;20275;-66
2023/06/16 13:48:01;;;;;;;4.75;3.72;;;;;;;25.74;26.88;99856.81;10391753;28;20857;-67
2023/06/16 13:53:03;;;;;;;3.97;3.42;;;;;;;27.16;26.44;99791.75;10386826;28;20704;-69
2023/06/16 13:58:05;;;;;;;5.53;3.88;;;;;;;27.46;26.53;99800.66;10387756;28;20236;-68
2023/06/16 14:03:07;;;;;;;5.60;3.60;;;;;;;27.59;26.54;99799.91;10387249;28;20654;-66
2023/06/16 14:08:11;;;;;;;4.82;3.40;;;;;;;28.77;25.58;99739.19;10384321;28;20232;-66
2023/06/16 14:13:16;;;;;;;5.57;3.58;;;;;;;28.37;25.57;99764.47;10388874;28;20267;-65
2023/06/16 14:18:18;;;;;;;6.10;3.67;;;;;;;28.36;26.08;99764.81;10389413;28;20227;-66
2023/06/16 14:23:20;;;;;;;3.75;3.33;;;;;;;28.55;25.77;99779.25;10382046;28;20226;-66
2023/06/16 14:28:21;;;;;;;6.38;3.78;;;;;;;29.71;25.26;99700.91;10386279;28;20237;-66
2023/06/16 14:33:23;;;;;;;7.75;3.70;;;;;;;26.42;26.69;99829.66;10386841;28;20209;-65
2023/06/16 14:38:25;;;;;;;3.88;3.45;;;;;;;28.79;25.66;99732.25;10380084;28;20232;-66
2023/06/16 14:43:26;;;;;;;5.75;3.15;;;;;;;27.25;26.45;99795.47;10384472;28;20276;-66
2023/06/16 14:48:28;;;;;;;5.47;3.72;;;;;;;27.83;25.59;99802.59;10370139;28;20228;-66
2023/06/16 14:53:30;;;;;;;6.28;3.72;;;;;;;27.79;26.38;99790.53;10376628;28;20212;-66
2023/06/16 14:58:32;;;;;;;5.25;3.55;;;;;;;26.51;26.50;99808.72;10381733;28;20232;-66
2023/06/16 15:03:34;;;;;;;4.90;3.58;;;;;;;27.92;26.27;99763.38;10383738;28;20251;-65
2023/06/16 15:08:36;;;;;;;4.47;3.53;;;;;;;26.10;26.62;99829.13;10393364;28;20228;-66
2023/06/16 15:13:38;;;;;;;4.47;3.55;;;;;;;27.81;25.56;99741.56;10382399;28;20752;-65
2023/06/16 15:18:40;;;;;;;6.20;3.38;;;;;;;28.22;25.85;99776.59;10385336;28;20673;-64
2023/06/16 15:23:41;;;;;;;5.05;3.35;;;;;;;28.87;25.55;99749.19;10379747;28;20221;-66
2023/06/16 15:28:43;;;;;;;4.00;3.60;;;;;;;29.61;25.23;99734.25;10386377;28;20268;-66
2023/06/16 15:33:45;;;;;;;5.43;4.43;;;;;;;28.03;25.55;99815.13;10385133;28;20260;-65
2023/06/16 15:38:46;;;;;;;7.43;3.53;;;;;;;28.82;25.15;99766.63;10383539;28;20307;-66
2023/06/16 15:43:48;;;;;;;6.30;3.78;;;;;;;28.89;24.80;99768.94;10388637;28;20672;-66
2023/06/16 15:48:50;;;;;;;6.00;3.65;;;;;;;29.06;25.84;99749.03;10387958;28;20320;-66
2023/06/16 15:53:51;;;;;;;4.55;3.85;;;;;;;26.57;25.83;99815.78;10387466;28;20691;-65
2023/06/16 15:58:53;;;;;;;4.18;3.40;;;;;;;27.71;24.47;99791.22;10382351;28;20287;-67
2023/06/16 16:03:55;;;;;;;6.30;3.47;;;;;;;29.13;25.38;99736.50;10393184;28;20237;-67
2023/06/16 16:08:57;;;;;;;5.95;3.70;;;;;;;29.02;24.40;99740.56;10394961;28;20946;-67
2023/06/16 16:13:59;;;;;;;8.27;3.50;;;;;;;29.65;25.21;99740.75;10391939;28;20207;-67
2023/06/16 16:19:01;;;;;;;6.13;3.83;;;;;;;29.49;25.09;99760.41;10392359;28;20278;-67
2023/06/16 16:24:03;;;;;;;5.60;3.67;;;;;;;27.30;25.68;99805.56;10389447;28;20368;-66
2023/06/16 16:29:08;;;;;;;4.65;3.20;;;;;;;26.66;26.88;99791.28;10385701;28;20225;-67
2023/06/16 16:34:10;;;;;;;5.80;3.63;;;;;;;27.95;25.79;99749.03;10392196;28;20239;-67
2023/06/16 16:39:12;;;;;;;6.90;3.38;;;;;;;27.59;26.25;99757.88;10390345;28;20255;-67
2023/06/16 16:44:14;;;;;;;9.55;4.30;;;;;;;27.52;25.92;99760.19;10392708;28;20727;-67
2023/06/16 16:49:15;;;;;;;5.45;3.75;;;;;;;30.09;24.61;99705.97;10384996;28;20479;-67
2023/06/16 16:54:21;;;;;;;5.93;3.53;;;;;;;27.17;25.14;99792.56;10383519;28;20261;-68
2023/06/16 16:59:23;;;;;;;5.78;3.85;;;;;;;28.38;25.45;99751.53;10382449;28;20236;-68
2023/06/16 17:04:25;;;;;;;5.45;3.38;;;;;;;28.27;25.43;99761.91;10383612;28;20680;-68
2023/06/16 17:09:26;;;;;;;8.45;3.88;;;;;;;28.94;24.93;99738.56;10381021;28;20307;-68
2023/06/16 17:14:28;;;;;;;5.82;3.60;;;;;;;28.61;24.68;99763.47;10381053;28;20210;-66
2023/06/16 17:19:30;;;;;;;7.22;3.67;;;;;;;29.06;26.79;99752.56;10381300;28;20227;-67
2023/06/16 17:24:32;;;;;;;7.47;3.50;;;;;;;28.14;26.56;99770.94;10382035;28;20621;-67
2023/06/16 17:29:33;;;;;;;8.40;3.53;;;;;;;29.21;26.02;99750.63;10381614;28;20215;-67
2023/06/16 17:34:35;;;;;;;7.15;3.67;;;;;;;28.12;27.17;99771.28;10383671;28;20296;-67
2023/06/16 17:39:37;;;;;;;7.35;3.50;;;;;;;29.02;26.89;99731.50;10383295;28;20376;-67
2023/06/16 17:44:38;;;;;;;7.07;3.33;;;;;;;28.89;26.69;99735.91;10389344;28;20327;-66
2023/06/16 17:49:40;;;;;;;5.60;3.53;;;;;;;28.93;27.29;99753.44;10377901;28;20677;-67
2023/06/16 17:54:42;;;;;;;4.15;3.35;;;;;;;28.46;26.70;99778.34;10382793;28;20209;-66
2023/06/16 17:59:44;;;;;;;5.07;3.60;;;;;;;28.87;25.84;99761.00;10379886;28;20714;-67
2023/06/16 18:04:46;;;;;;;4.07;3.58;;;;;;;28.18;26.73;99777.47;10380737;28;20379;-66
2023/06/16 18:09:47;;;;;;;6.68;3.60;;;;;;;28.63;26.44;99760.38;10385661;28;20205;-66
2023/06/16 18:14:49;;;;;;;4.20;3.60;;;;;;;28.74;26.35;99759.09;10373934;28;20215;-65
2023/06/16 18:19:51;;;;;;;5.32;3.60;;;;;;;28.85;27.36;99756.94;10383273;28;20266;-66
2023/06/16 18:24:53;;;;;;;10.40;4.10;;;;;;;28.67;27.95;99740.22;10379553;28;20324;-66
2023/06/16 18:29:54;;;;;;;5.13;3.67;;;;;;;28.28;28.62;99760.81;10381247;28;20216;-67
2023/06/16 18:34:56;;;;;;;5.63;3.92;;;;;;;29.11;27.50;99735.13;10376038;28;20248;-65
2023/06/16 18:39:58;;;;;;;7.38;3.67;;;;;;;28.51;27.98;99770.00;10382682;28;20209;-66
2023/06/16 18:45:03;;;;;;;4.95;3.67;;;;;;;28.51;27.06;99767.25;10379656;28;20229;-67
2023/06/16 18:50:07;;;;;;;5.63;3.80;;;;;;;28.33;27.58;99777.22;10377282;28;20209;-67
2023/06/16 18:55:10;;;;;;;4.75;3.67;;;;;;;27.63;28.55;99783.63;10374761;28;20739;-67
2023/06/16 19:00:12;;;;;;;6.53;4.25;;;;;;;27.78;28.07;99774.34;10373392;28;20330;-67
2023/06/16 19:05:14;;;;;;;4.65;3.58;;;;;;;27.26;28.30;99788.88;10381259;28;20236;-67
2023/06/16 19:10:17;;;;;;;4.55;3.83;;;;;;;27.82;29.13;99770.69;10377919;28;20284;-67
2023/06/16 19:15:21;;;;;;;6.53;3.90;;;;;;;27.71;29.87;99768.44;10376907;28;20228;-67
2023/06/16 19:20:24;;;;;;;4.85;3.78;;;;;;;27.39;30.70;99776.31;10380280;28;20216;-67
2023/06/16 19:25:26;;;;;;;7.72;3.85;;;;;;;27.43;29.97;99771.03;10388341;28;20738;-67
2023/06/16 19:30:28;;;;;;;4.65;3.67;;;;;;;26.81;29.98;99804.03;10388958;28;20213;-68
2023/06/16 19:35:30;;;;;;;7.72;4.25;;;;;;;26.36;29.64;99802.28;10390242;28;20648;-67
2023/06/16 19:40:31;;;;;;;5.07;3.55;;;;;;;26.39;29.63;99818.16;10391017;28;20292;-66
2023/06/16 19:45:33;;;;;;;8.10;3.92;;;;;;;26.45;29.71;99816.19;10389325;28;20236;-66
2023/06/16 19:50:35;;;;;;;5.00;3.58;;;;;;;25.78;30.37;99819.53;10388342;28;20197;-65
2023/06/16 19:55:37;;;;;;;4.97;3.50;;;;;;;25.07;31.42;99826.22;10381458;28;20237;-68
2023/06/16 20:00:50;;;;;;;5.03;3.90;;;;;;;24.15;34.01;99813.59;10386220;28;20212;-64
2023/06/16 20:05:52;;;;;;;8.20;4.35;;;;;;;25.80;32.06;99806.34;10390062;28;20633;-69
2023/06/16 20:10:57;;;;;;;6.03;3.60;;;;;;;24.54;32.81;99843.06;10390949;28;20208;-65
2023/06/16 20:15:59;;;;;;;7.45;3.85;;;;;;;24.64;30.89;99840.28;10385142;28;20229;-65
2023/06/16 20:21:01;;;;;;;5.00;4.07;;;;;;;23.72;32.04;99856.72;10389791;28;20207;-69
2023/06/16 20:26:03;;;;;;;5.10;3.67;;;;;;;24.48;31.04;99868.81;10391876;28;20236;-68
2023/06/16 20:31:04;;;;;;;4.93;3.70;;;;;;;24.52;30.76;99867.94;10386646;28;20803;-68
2023/06/16 20:36:07;;;;;;;6.57;4.07;;;;;;;25.17;30.79;99844.50;10391948;28;20229;-65
2023/06/16 20:41:08;;;;;;;7.63;4.13;;;;;;;25.16;31.03;99870.25;10383088;28;20208;-67
2023/06/16 20:46:10;;;;;;;10.27;4.45;;;;;;;20.44;40.26;99807.41;10390753;28;20692;-66
2023/06/16 20:51:12;;;;;;;6.65;4.13;;;;;;;21.50;37.76;99797.31;10391599;28;20209;-68
2023/06/16 20:56:14;;;;;;;5.15;4.38;;;;;;;21.55;36.65;99797.38;10389259;28;20260;-68
2023/06/16 21:01:18;;;;;;;7.22;4.65;;;;;;;22.34;35.54;99827.72;10391156;28;20213;-68
2023/06/16 21:06:21;;;;;;;5.60;4.63;;;;;;;21.43;37.25;99821.22;10382201;28;20236;-68
2023/06/16 21:11:25;;;;;;;6.90;4.38;;;;;;;22.26;36.80;99790.88;10387189;28;20516;-67
2023/06/16 21:16:30;;;;;;;5.53;3.90;;;;;;;21.66;37.19;99814.63;10380356;28;20224;-68
2023/06/16 21:21:31;;;;;;;5.18;4.35;;;;;;;23.36;35.76;99811.03;10386345;28;20225;-68
2023/06/16 21:26:33;;;;;;;6.88;4.38;;;;;;;22.32;36.27;99860.69;10380648;28;20319;-68
2023/06/16 21:31:35;;;;;;;6.30;4.20;;;;;;;24.85;33.74;99832.88;10382206;28;20208;-64
2023/06/16 21:36:36;;;;;;;7.60;3.92;;;;;;;23.86;34.25;99866.03;10386939;28;20229;-68
2023/06/16 21:41:38;;;;;;;4.72;3.88;;;;;;;24.47;33.91;99869.88;10386897;28;20217;-68
2023/06/16 21:46:40;;;;;;;5.65;4.13;;;;;;;24.20;34.41;99857.34;10380065;28;20322;-65
2023/06/16 21:51:44;;;;;;;6.03;4.18;;;;;;;24.09;34.72;99855.66;10387694;28;20228;-67
2023/06/16 21:56:46;;;;;;;6.13;3.90;;;;;;;24.04;35.11;99861.97;10380246;28;20355;-67
2023/06/16 22:01:47;;;;;;;4.65;4.05;;;;;;;22.12;36.91;99885.06;10385612;28;20213;-68
2023/06/16 22:06:49;;;;;;;6.75;4.68;;;;;;;23.60;35.35;99865.16;10387822;28;20244;-68
2023/06/16 22:11:53;;;;;;;5.47;4.28;;;;;;;21.71;37.42;99874.59;10381747;28;20213;-68
2023/06/16 22:16:59;;;;;;;6.28;4.60;;;;;;;21.91;37.54;99860.34;10384215;28;20358;-64
2023/06/16 22:22:01;;;;;;;5.80;4.60;;;;;;;21.26;37.94;99862.09;10378165;28;20244;-68
2023/06/16 22:27:03;;;;;;;11.13;4.95;;;;;;;23.23;35.37;99842.41;10384276;28;20229;-66
2023/06/16 22:32:22;;;;;;;7.85;4.55;;;;;;;22.95;35.94;99851.00;10385247;28;20208;-67
2023/06/16 22:37:24;;;;;;;6.15;4.38;;;;;;;22.46;35.55;99882.88;10383111;28;20225;-68
2023/06/16 22:42:25;;;;;;;7.97;5.07;;;;;;;22.22;35.96;99879.69;10382989;28;20754;-68
2023/06/16 22:47:29;;;;;;;5.50;4.65;;;;;;;23.77;33.62;99868.50;10389190;28;20244;-67
2023/06/16 22:52:31;;;;;;;7.57;5.30;;;;;;;23.05;34.07;99891.97;10378222;28;20224;-68
2023/06/16 22:57:32;;;;;;;6.85;5.05;;;;;;;22.81;34.34;99886.13;10382091;28;20229;-68
2023/06/16 23:02:34;;;;;;;7.55;4.07;;;;;;;23.01;34.98;99875.31;10386614;28;20303;-66
2023/06/16 23:07:36;;;;;;;5.18;4.18;;;;;;;24.62;34.06;99833.47;10380073;28;20229;-67
2023/06/16 23:12:38;;;;;;;7.03;4.68;;;;;;;23.85;34.65;99860.84;10382586;28;20220;-68
2023/06/16 23:17:40;;;;;;;5.82;4.50;;;;;;;23.23;35.46;99871.63;10382529;28;20268;-65
2023/06/16 23:22:44;;;;;;;6.38;4.45;;;;;;;22.69;36.72;99869.97;10387311;28;20234;-67
2023/06/16 23:27:50;;;;;;;5.15;4.28;;;;;;;23.40;36.86;99833.19;10380005;28;20704;-67
2023/06/16 23:32:52;;;;;;;7.07;4.57;;;;;;;22.96;36.49;99842.56;10382306;28;20217;-68